ABY226 OMSJ-OMAA
Flight info
| Callsign | ABY226 |
|---|---|
| Flight time | 0h 22m |
| Altitude | 16000 |
| Route | EMERU |
| Aircraft | A21N/M-SDE2E3FGHIRWXY/LB1 |
Departure
| Time | 2026-04-28 20:58 |
|---|---|
| Airport | Sharjah International Airport (OMSJ) |
Arrival
| Time | 2026-04-28 21:21 |
|---|---|
| Airport | Zayed International Airport (OMAA) |
| Time | Latitude | Longitude | Altitude | Speed | Heading |
|---|---|---|---|---|---|
| 2026-04-28 20:37 | 25.32244 | 55.52133 | 99 ft | 0 kts | 213° |
| 2026-04-28 20:49 | 25.32249 | 55.52136 | 99 ft | 2 kts | 213° |
| 2026-04-28 20:49 | 25.32261 | 55.52145 | 100 ft | 2 kts | 214° |
| 2026-04-28 20:49 | 25.32270 | 55.52152 | 100 ft | 0 kts | 214° |
| 2026-04-28 20:50 | 25.32282 | 55.52159 | 100 ft | 2 kts | 194° |
| 2026-04-28 20:50 | 25.32297 | 55.52161 | 100 ft | 2 kts | 178° |
| 2026-04-28 20:50 | 25.32312 | 55.52158 | 100 ft | 2 kts | 159° |
| 2026-04-28 20:50 | 25.32325 | 55.52150 | 100 ft | 2 kts | 141° |
| 2026-04-28 20:51 | 25.32334 | 55.52140 | 100 ft | 0 kts | 125° |
| 2026-04-28 20:51 | 25.32337 | 55.52134 | 100 ft | 0 kts | 122° |
| 2026-04-28 20:51 | 25.32338 | 55.52134 | 100 ft | 0 kts | 122° |
| 2026-04-28 20:53 | 25.32337 | 55.52135 | 100 ft | 0 kts | 122° |
| 2026-04-28 20:54 | 25.32335 | 55.52138 | 100 ft | 0 kts | 122° |
| 2026-04-28 20:54 | 25.32332 | 55.52143 | 100 ft | 1 kts | 122° |
| 2026-04-28 20:54 | 25.32314 | 55.52176 | 101 ft | 11 kts | 122° |
| 2026-04-28 20:54 | 25.32353 | 55.52285 | 103 ft | 20 kts | 33° |
| 2026-04-28 20:55 | 25.32422 | 55.52334 | 105 ft | 6 kts | 33° |
| 2026-04-28 20:55 | 25.32455 | 55.52364 | 107 ft | 7 kts | 66° |
| 2026-04-28 20:55 | 25.32432 | 55.52457 | 107 ft | 17 kts | 123° |
| 2026-04-28 20:55 | 25.32394 | 55.52598 | 107 ft | 20 kts | 33° |
| 2026-04-28 20:56 | 25.32520 | 55.52661 | 107 ft | 19 kts | 354° |
| 2026-04-28 20:56 | 25.32624 | 55.52587 | 106 ft | 7 kts | 300° |
| 2026-04-28 20:56 | 25.32625 | 55.52584 | 106 ft | 0 kts | 302° |
| 2026-04-28 20:57 | 25.32643 | 55.52554 | 106 ft | 25 kts | 303° |
| 2026-04-28 20:58 | 25.32885 | 55.52136 | 110 ft | 102 kts | 303° |
| 2026-04-28 20:58 | 25.33390 | 55.51246 | 119 ft | 162 kts | 303° |
| 2026-04-28 20:58 | 25.34016 | 55.50166 | 531 ft | 175 kts | 304° |
| 2026-04-28 20:58 | 25.34660 | 55.49063 | 1347 ft | 169 kts | 305° |
| 2026-04-28 20:59 | 25.35266 | 55.48014 | 2129 ft | 164 kts | 305° |
| 2026-04-28 20:59 | 25.35882 | 55.46942 | 2674 ft | 170 kts | 306° |
| 2026-04-28 20:59 | 25.36514 | 55.45795 | 3153 ft | 183 kts | 299° |
| 2026-04-28 20:59 | 25.36640 | 55.44327 | 3465 ft | 215 kts | 256° |
| 2026-04-28 21:00 | 25.35702 | 55.42923 | 3857 ft | 246 kts | 219° |
| 2026-04-28 21:00 | 25.34175 | 55.41937 | 4373 ft | 265 kts | 211° |
| 2026-04-28 21:00 | 25.32485 | 55.40965 | 4929 ft | 281 kts | 212° |
| 2026-04-28 21:00 | 25.30755 | 55.39916 | 5758 ft | 285 kts | 213° |
| 2026-04-28 21:01 | 25.29063 | 55.38828 | 6679 ft | 284 kts | 214° |
| 2026-04-28 21:01 | 25.27389 | 55.37711 | 7587 ft | 284 kts | 215° |
| 2026-04-28 21:01 | 25.25717 | 55.36569 | 8472 ft | 284 kts | 215° |
| 2026-04-28 21:01 | 25.24059 | 55.35421 | 9218 ft | 284 kts | 215° |
| 2026-04-28 21:02 | 25.22374 | 55.34247 | 9713 ft | 285 kts | 215° |
| 2026-04-28 21:02 | 25.20696 | 55.33072 | 9950 ft | 286 kts | 215° |
| 2026-04-28 21:02 | 25.19024 | 55.31900 | 9970 ft | 284 kts | 215° |
| 2026-04-28 21:02 | 25.17345 | 55.30720 | 9975 ft | 284 kts | 215° |
| 2026-04-28 21:03 | 25.15685 | 55.29553 | 9977 ft | 283 kts | 215° |
| 2026-04-28 21:03 | 25.14027 | 55.28388 | 9979 ft | 282 kts | 215° |
| 2026-04-28 21:03 | 25.12370 | 55.27223 | 9988 ft | 282 kts | 215° |
| 2026-04-28 21:03 | 25.10710 | 55.26056 | 9986 ft | 282 kts | 215° |
| 2026-04-28 21:04 | 25.09050 | 55.24887 | 9987 ft | 288 kts | 215° |
| 2026-04-28 21:04 | 25.07280 | 55.23638 | 9997 ft | 316 kts | 215° |
| 2026-04-28 21:04 | 25.05347 | 55.22277 | 9996 ft | 335 kts | 214° |
| 2026-04-28 21:04 | 25.03361 | 55.20884 | 9990 ft | 339 kts | 214° |
| 2026-04-28 21:05 | 25.01391 | 55.19504 | 9987 ft | 339 kts | 214° |
| 2026-04-28 21:05 | 24.99393 | 55.18106 | 9987 ft | 339 kts | 214° |
| 2026-04-28 21:05 | 24.97378 | 55.16694 | 9988 ft | 339 kts | 214° |
| 2026-04-28 21:05 | 24.95406 | 55.15310 | 9988 ft | 338 kts | 214° |
| 2026-04-28 21:06 | 24.93401 | 55.13906 | 9987 ft | 339 kts | 214° |
| 2026-04-28 21:06 | 24.91403 | 55.12506 | 9986 ft | 339 kts | 214° |
| 2026-04-28 21:06 | 24.89416 | 55.11113 | 9986 ft | 340 kts | 214° |
| 2026-04-28 21:06 | 24.87411 | 55.09708 | 9986 ft | 341 kts | 214° |
| 2026-04-28 21:07 | 24.85420 | 55.08314 | 9983 ft | 341 kts | 214° |
| 2026-04-28 21:07 | 24.83396 | 55.06897 | 9982 ft | 342 kts | 214° |
| 2026-04-28 21:07 | 24.81387 | 55.05492 | 9980 ft | 342 kts | 214° |
| 2026-04-28 21:07 | 24.79360 | 55.04110 | 9978 ft | 342 kts | 213° |
| 2026-04-28 21:08 | 24.77331 | 55.02784 | 9977 ft | 342 kts | 212° |
| 2026-04-28 21:08 | 24.75288 | 55.01458 | 9823 ft | 337 kts | 212° |
| 2026-04-28 21:08 | 24.73285 | 55.00156 | 9285 ft | 336 kts | 212° |
| 2026-04-28 21:08 | 24.71262 | 54.98837 | 8683 ft | 337 kts | 212° |
| 2026-04-28 21:09 | 24.69236 | 54.97511 | 8193 ft | 335 kts | 212° |
| 2026-04-28 21:09 | 24.67223 | 54.96195 | 7985 ft | 337 kts | 212° |
| 2026-04-28 21:09 | 24.65227 | 54.94890 | 7978 ft | 338 kts | 212° |
| 2026-04-28 21:09 | 24.63201 | 54.93566 | 7890 ft | 338 kts | 212° |
| 2026-04-28 21:10 | 24.61163 | 54.92233 | 7709 ft | 337 kts | 212° |
| 2026-04-28 21:10 | 24.59161 | 54.90927 | 7501 ft | 337 kts | 212° |
| 2026-04-28 21:10 | 24.57134 | 54.89605 | 7219 ft | 337 kts | 212° |
| 2026-04-28 21:10 | 24.55111 | 54.88286 | 6846 ft | 336 kts | 212° |
| 2026-04-28 21:11 | 24.53118 | 54.86984 | 6431 ft | 336 kts | 212° |
| 2026-04-28 21:11 | 24.51105 | 54.85672 | 6011 ft | 335 kts | 212° |
| 2026-04-28 21:11 | 24.49129 | 54.84383 | 5763 ft | 324 kts | 212° |
| 2026-04-28 21:11 | 24.47214 | 54.83136 | 5556 ft | 312 kts | 212° |
| 2026-04-28 21:12 | 24.45294 | 54.82231 | 5231 ft | 298 kts | 190° |
| 2026-04-28 21:12 | 24.43302 | 54.82436 | 4867 ft | 282 kts | 156° |
| 2026-04-28 21:12 | 24.41825 | 54.83713 | 4550 ft | 263 kts | 122° |
| 2026-04-28 21:12 | 24.40979 | 54.85422 | 4178 ft | 252 kts | 114° |
| 2026-04-28 21:13 | 24.40157 | 54.87100 | 3717 ft | 251 kts | 117° |
| 2026-04-28 21:13 | 24.39222 | 54.88714 | 3216 ft | 250 kts | 120° |
| 2026-04-28 21:13 | 24.38217 | 54.90258 | 2994 ft | 252 kts | 122° |
| 2026-04-28 21:13 | 24.37029 | 54.91693 | 2966 ft | 254 kts | 142° |
| 2026-04-28 21:14 | 24.35446 | 54.92355 | 2962 ft | 237 kts | 175° |
| 2026-04-28 21:14 | 24.33919 | 54.92044 | 3026 ft | 217 kts | 204° |
| 2026-04-28 21:14 | 24.32693 | 54.91119 | 2984 ft | 211 kts | 234° |
| 2026-04-28 21:14 | 24.32186 | 54.89682 | 2978 ft | 199 kts | 271° |
| 2026-04-28 21:15 | 24.32228 | 54.88186 | 2994 ft | 197 kts | 281° |
| 2026-04-28 21:15 | 24.32361 | 54.86692 | 2990 ft | 196 kts | 281° |
| 2026-04-28 21:15 | 24.32511 | 54.85194 | 2985 ft | 196 kts | 282° |
| 2026-04-28 21:15 | 24.32805 | 54.83773 | 2980 ft | 191 kts | 295° |
| 2026-04-28 21:16 | 24.33374 | 54.82478 | 2979 ft | 186 kts | 306° |
| 2026-04-28 21:16 | 24.34084 | 54.81323 | 2964 ft | 174 kts | 312° |
| 2026-04-28 21:16 | 24.34781 | 54.80323 | 2900 ft | 156 kts | 314° |
| 2026-04-28 21:16 | 24.35428 | 54.79420 | 2752 ft | 148 kts | 314° |
| 2026-04-28 21:17 | 24.36067 | 54.78533 | 2556 ft | 148 kts | 315° |
| 2026-04-28 21:17 | 24.36696 | 54.77654 | 2364 ft | 147 kts | 315° |
| 2026-04-28 21:17 | 24.37324 | 54.76769 | 2176 ft | 144 kts | 315° |
| 2026-04-28 21:17 | 24.37931 | 54.75913 | 1985 ft | 142 kts | 315° |
| 2026-04-28 21:18 | 24.38535 | 54.75059 | 1808 ft | 142 kts | 315° |
| 2026-04-28 21:18 | 24.39146 | 54.74196 | 1632 ft | 141 kts | 315° |
| 2026-04-28 21:18 | 24.39745 | 54.73351 | 1455 ft | 141 kts | 315° |
| 2026-04-28 21:18 | 24.40347 | 54.72503 | 1281 ft | 141 kts | 314° |
| 2026-04-28 21:19 | 24.40951 | 54.71644 | 1075 ft | 141 kts | 314° |
| 2026-04-28 21:19 | 24.41540 | 54.70807 | 893 ft | 140 kts | 313° |
| 2026-04-28 21:19 | 24.42135 | 54.69954 | 727 ft | 140 kts | 311° |
| 2026-04-28 21:19 | 24.42720 | 54.69102 | 605 ft | 140 kts | 312° |
| 2026-04-28 21:20 | 24.43330 | 54.68271 | 450 ft | 139 kts | 314° |
| 2026-04-28 21:20 | 24.43934 | 54.67444 | 229 ft | 139 kts | 311° |
| 2026-04-28 21:20 | 24.44533 | 54.66600 | 107 ft | 138 kts | 311° |
| 2026-04-28 21:20 | 24.45067 | 54.65871 | 91 ft | 101 kts | 306° |
| 2026-04-28 21:21 | 24.45391 | 54.65398 | 91 ft | 60 kts | 307° |
| 2026-04-28 21:21 | 24.45572 | 54.65116 | 91 ft | 34 kts | 294° |
| 2026-04-28 21:21 | 24.45633 | 54.64936 | 91 ft | 19 kts | 282° |
| 2026-04-28 21:21 | 24.45651 | 54.64843 | 91 ft | 10 kts | 282° |
| 2026-04-28 21:22 | 24.45659 | 54.64803 | 91 ft | 0 kts | 282° |
| 2026-04-28 21:22 | 24.45662 | 54.64789 | 91 ft | 3 kts | 282° |
| 2026-04-28 21:22 | 24.45669 | 54.64751 | 91 ft | 6 kts | 279° |
| 2026-04-28 21:22 | 24.45682 | 54.64690 | 91 ft | 10 kts | 289° |
| 2026-04-28 21:23 | 24.45684 | 54.64595 | 91 ft | 7 kts | 225° |
| 2026-04-28 21:23 | 24.45616 | 54.64617 | 91 ft | 13 kts | 128° |
| 2026-04-28 21:23 | 24.45535 | 54.64732 | 91 ft | 24 kts | 127° |
| 2026-04-28 21:23 | 24.45417 | 54.64900 | 91 ft | 28 kts | 127° |
| 2026-04-28 21:24 | 24.45277 | 54.64981 | 91 ft | 24 kts | 217° |
| 2026-04-28 21:24 | 24.45221 | 54.64926 | 91 ft | 6 kts | 252° |
| 2026-04-28 21:24 | 24.45229 | 54.64872 | 91 ft | 7 kts | 285° |
| 2026-04-28 21:24 | 24.45246 | 54.64807 | 91 ft | 9 kts | 288° |
| 2026-04-28 21:25 | 24.45253 | 54.64795 | 91 ft | 2 kts | 315° |
| 2026-04-28 21:25 | 24.45274 | 54.64791 | 91 ft | 3 kts | 12° |
| 2026-04-28 21:25 | 24.45307 | 54.64799 | 91 ft | 6 kts | 14° |
| 2026-04-28 21:25 | 24.45349 | 54.64810 | 91 ft | 0 kts | 13° |